Springfield, Illinois
Current Conditions -  °F | °C
As of 1:52 PM on Friday 21 Nov 2014 (Local Time) from KSPI Reporting Station
Few Clouds Few Clouds  
Wind Chill: 29°   Ceiling: Unl
Heat Index: 38°   Visibility: 10mi
Dew Point: 13°   Wind: 15mph
Humidity: 36%   Direction: 140°SE
Pressure: 30.35"   Gusts: NA
Location:  39.8°N, 89.64°W
Report Text: KSPI 211952Z 14013KT 10SM FEW039 03/M11 A3035 RMK AO2 SLP285 T00331106
Loading
Personal Weather Stations






























Interactive Weather Map New forecast layout! Learn more

10-Day Weather Forecast

Advertisements
Track Severe Weather on mobile